Time;durP1;ratioP1;P1;durP2;ratioP2;P2;SDS_P1;SDS_P2;PMS_P1;PMS_P2;Temp;Humidity;BMP_temperature;BMP_pressure;BME280_temperature;BME280_humidity;BME280_pressure;Samples;Min_cycle;Max_cycle;Signal;HPM_P1;HPM_P2
2023/11/18 00:01:49;;;;;;;6.00;3.05;;;5.50;99.90;;;;;;4914947;29;20311;-78
2023/11/18 00:04:39;;;;;;;5.20;3.15;;;5.40;99.90;;;;;;4935452;28;20553;-78
2023/11/18 00:07:25;;;;;;;6.07;3.05;;;5.40;99.90;;;;;;4927623;29;20373;-78
2023/11/18 00:10:11;;;;;;;4.13;2.80;;;5.40;99.90;;;;;;4950935;28;20745;-78
2023/11/18 00:13:03;;;;;;;5.88;3.40;;;5.40;99.90;;;;;;4939670;28;20051;-78
2023/11/18 00:15:49;;;;;;;6.97;3.58;;;5.30;99.90;;;;;;4932031;29;20345;-78
2023/11/18 00:18:36;;;;;;;5.25;3.55;;;5.30;99.90;;;;;;4916306;29;20039;-78
2023/11/18 00:21:22;;;;;;;6.03;3.25;;;5.20;99.90;;;;;;4949818;28;20113;-78
2023/11/18 00:24:09;;;;;;;4.90;3.05;;;5.20;99.90;;;;;;4940265;29;20043;-78
2023/11/18 00:26:55;;;;;;;4.70;3.30;;;5.20;99.90;;;;;;4932980;29;20122;-77
2023/11/18 00:29:41;;;;;;;6.70;3.50;;;5.10;99.90;;;;;;4939833;28;20057;-78
2023/11/18 00:32:28;;;;;;;6.28;3.38;;;5.10;99.90;;;;;;4925728;28;20099;-78
2023/11/18 00:35:14;;;;;;;5.97;3.30;;;5.10;99.90;;;;;;4914796;29;20346;-78
2023/11/18 00:38:02;;;;;;;5.68;3.33;;;5.10;99.90;;;;;;4933263;29;20047;-78
2023/11/18 00:40:49;;;;;;;5.50;3.55;;;5.10;99.90;;;;;;4907316;29;20043;-78
2023/11/18 00:43:36;;;;;;;5.15;3.25;;;5.10;99.90;;;;;;4947256;29;20043;-78
2023/11/18 00:46:23;;;;;;;6.22;3.15;;;5.00;99.90;;;;;;4939444;29;20055;-78
2023/11/18 00:49:11;;;;;;;6.22;3.65;;;5.00;99.90;;;;;;4934297;28;20086;-78
2023/11/18 00:51:58;;;;;;;6.05;3.80;;;4.90;99.90;;;;;;4933765;29;20380;-78
2023/11/18 00:54:46;;;;;;;7.97;3.95;;;4.90;99.90;;;;;;4932778;29;20043;-77
2023/11/18 00:57:32;;;;;;;7.00;3.90;;;4.90;99.90;;;;;;4947113;28;20035;-78
2023/11/18 01:00:21;;;;;;;5.57;3.50;;;4.90;99.90;;;;;;4951174;28;20121;-78
2023/11/18 01:03:08;;;;;;;7.22;4.15;;;4.90;99.90;;;;;;4964096;28;20126;-78
2023/11/18 01:05:54;;;;;;;6.72;4.05;;;4.80;99.90;;;;;;4931607;29;20039;-77
2023/11/18 01:08:40;;;;;;;6.60;3.88;;;4.80;99.90;;;;;;4917539;29;20098;-78
2023/11/18 01:11:26;;;;;;;8.13;3.78;;;4.80;99.90;;;;;;4938334;28;20372;-78
2023/11/18 01:14:12;;;;;;;6.53;3.55;;;4.80;99.90;;;;;;4963750;28;20070;-78
2023/11/18 01:16:59;;;;;;;7.10;3.58;;;4.80;99.90;;;;;;4950659;28;20061;-78
2023/11/18 01:19:48;;;;;;;5.93;3.90;;;4.70;99.90;;;;;;4900703;29;20044;-78
2023/11/18 01:22:37;;;;;;;7.47;4.18;;;4.70;99.90;;;;;;4933119;29;20051;-78
2023/11/18 01:25:24;;;;;;;6.90;5.00;;;4.70;99.90;;;;;;4930763;29;20364;-78
2023/11/18 01:28:10;;;;;;;8.40;5.10;;;4.70;99.90;;;;;;4931491;29;20058;-78
2023/11/18 01:30:58;;;;;;;9.98;4.68;;;4.70;99.90;;;;;;4943990;28;20066;-78
2023/11/18 01:33:46;;;;;;;7.18;4.35;;;4.70;99.90;;;;;;4918291;29;20138;-78
2023/11/18 01:36:34;;;;;;;8.68;4.30;;;4.60;99.90;;;;;;4912855;29;20036;-78
2023/11/18 01:39:20;;;;;;;7.22;4.35;;;4.60;99.90;;;;;;4913395;28;20105;-78
2023/11/18 01:42:06;;;;;;;8.15;5.00;;;4.50;99.90;;;;;;4950487;28;20047;-78
2023/11/18 01:44:55;;;;;;;6.88;4.18;;;4.50;99.90;;;;;;4924904;29;20039;-78
2023/11/18 01:47:42;;;;;;;8.55;5.03;;;4.40;99.90;;;;;;4928056;29;20050;-78
2023/11/18 01:50:29;;;;;;;8.18;4.82;;;4.40;99.90;;;;;;4921290;28;20035;-78
2023/11/18 01:53:17;;;;;;;8.75;4.75;;;4.40;99.90;;;;;;4916243;29;20067;-78
2023/11/18 01:56:05;;;;;;;6.63;4.37;;;4.30;99.90;;;;;;4936709;29;20123;-78
2023/11/18 01:58:53;;;;;;;7.10;4.47;;;4.30;99.90;;;;;;4959544;28;20263;-78
2023/11/18 02:01:39;;;;;;;7.72;5.15;;;4.40;99.90;;;;;;4929435;29;20035;-78
2023/11/18 02:04:25;;;;;;;7.38;4.43;;;4.40;99.90;;;;;;4898191;28;20062;-78
2023/11/18 02:07:14;;;;;;;8.38;4.60;;;4.40;99.90;;;;;;4913596;29;20058;-77
2023/11/18 02:10:03;;;;;;;9.93;4.88;;;4.40;99.90;;;;;;4932751;28;20101;-78
2023/11/18 02:13:05;;;;;;;8.40;4.88;;;4.50;99.90;;;;;;4943635;28;20034;-78
2023/11/18 02:16:00;;;;;;;7.13;4.47;;;4.50;99.90;;;;;;4916947;29;20043;-78
2023/11/18 02:18:46;;;;;;;10.95;4.47;;;4.50;99.90;;;;;;4916086;29;20122;-78
2023/11/18 02:21:34;;;;;;;7.60;4.55;;;4.60;99.90;;;;;;4896751;29;20046;-78
2023/11/18 02:24:36;;;;;;;5.30;3.40;;;4.60;99.90;;;;;;4926381;29;20451;-78
2023/11/18 02:27:25;;;;;;;8.90;4.57;;;4.60;99.90;;;;;;4927799;29;20267;-78
2023/11/18 02:30:13;;;;;;;7.65;4.05;;;4.60;99.90;;;;;;4937223;29;20531;-78
2023/11/18 02:33:18;;;;;;;8.93;5.20;;;4.70;99.90;;;;;;4921202;28;20387;-78
2023/11/18 02:36:10;;;;;;;6.25;4.70;;;4.70;99.90;;;;;;4914990;29;20278;-78
2023/11/18 02:38:56;;;;;;;6.35;4.15;;;4.70;99.90;;;;;;4919267;28;20404;-77
2023/11/18 02:41:45;;;;;;;8.07;4.35;;;4.70;99.90;;;;;;4919255;29;20443;-78
2023/11/18 02:44:32;;;;;;;7.90;4.47;;;4.70;99.90;;;;;;4917777;29;20043;-78
2023/11/18 02:47:18;;;;;;;7.53;4.30;;;4.80;99.90;;;;;;4930469;29;20419;-78
2023/11/18 02:50:10;;;;;;;6.82;4.43;;;4.80;99.90;;;;;;4926761;28;20376;-78
2023/11/18 02:52:58;;;;;;;8.57;4.47;;;4.80;99.90;;;;;;4929683;29;20074;-78
2023/11/18 02:55:44;;;;;;;9.80;4.43;;;4.80;99.90;;;;;;4938958;28;20039;-78
2023/11/18 02:58:30;;;;;;;9.25;5.07;;;4.80;99.90;;;;;;4917205;29;20082;-78
2023/11/18 03:01:19;;;;;;;7.95;5.10;;;4.80;99.90;;;;;;4924490;29;20778;-78
2023/11/18 03:04:06;;;;;;;9.05;5.20;;;4.80;99.90;;;;;;4920936;29;20055;-78
2023/11/18 03:06:52;;;;;;;10.48;5.45;;;4.80;99.90;;;;;;4933993;29;20536;-78
2023/11/18 03:09:39;;;;;;;9.15;5.32;;;4.90;99.90;;;;;;4922865;29;20082;-78
2023/11/18 03:12:27;;;;;;;7.97;5.00;;;4.90;99.90;;;;;;4931628;29;20130;-78
2023/11/18 03:15:16;;;;;;;8.40;5.40;;;4.90;99.90;;;;;;4931574;29;20039;-78
2023/11/18 03:18:02;;;;;;;7.63;5.25;;;4.80;99.90;;;;;;4934366;28;20035;-78
2023/11/18 03:20:49;;;;;;;9.70;5.63;;;4.80;99.90;;;;;;4928240;29;20079;-78
2023/11/18 03:23:36;;;;;;;8.10;5.40;;;4.80;99.90;;;;;;4915625;29;20048;-78
2023/11/18 03:26:23;;;;;;;8.32;4.95;;;4.80;99.90;;;;;;4930711;29;20051;-78
2023/11/18 03:29:11;;;;;;;8.40;5.00;;;4.80;99.90;;;;;;4950705;28;20039;-77
2023/11/18 03:31:58;;;;;;;11.95;5.18;;;4.80;99.90;;;;;;4950859;28;20042;-78
2023/11/18 03:34:44;;;;;;;7.22;4.75;;;4.80;99.90;;;;;;4938511;29;20105;-78
2023/11/18 03:37:31;;;;;;;7.60;4.75;;;4.80;99.90;;;;;;4926808;29;20071;-77
2023/11/18 03:40:17;;;;;;;10.02;5.13;;;4.80;99.90;;;;;;4932594;28;20039;-77
2023/11/18 03:43:04;;;;;;;6.82;4.40;;;4.80;99.90;;;;;;4941929;29;20051;-77
2023/11/18 03:45:52;;;;;;;8.38;4.97;;;4.80;99.90;;;;;;4911705;29;20129;-78
2023/11/18 03:48:38;;;;;;;;;;;4.80;99.90;;;;;;4933938;29;20047;-78
2023/11/18 03:51:24;;;;;;;10.48;4.95;;;4.80;99.90;;;;;;4933746;29;19910;-78
2023/11/18 03:54:10;;;;;;;7.47;4.80;;;4.80;99.90;;;;;;4918953;29;20531;-78
2023/11/18 03:56:57;;;;;;;6.85;4.80;;;4.90;99.90;;;;;;4927789;28;20058;-77
2023/11/18 03:59:43;;;;;;;8.13;4.70;;;4.90;99.90;;;;;;4913997;28;20050;-77
2023/11/18 04:02:29;;;;;;;8.50;5.50;;;4.90;99.90;;;;;;4940825;28;20097;-77
2023/11/18 04:05:18;;;;;;;7.30;4.82;;;4.90;99.90;;;;;;4914629;29;20047;-79
2023/11/18 04:08:06;;;;;;;8.68;5.15;;;4.90;99.90;;;;;;4943800;28;20053;-79
2023/11/18 04:10:53;;;;;;;10.13;4.70;;;4.90;99.90;;;;;;4977681;28;20494;-78
2023/11/18 04:13:42;;;;;;;8.02;5.30;;;4.90;99.90;;;;;;4921498;28;20051;-78
2023/11/18 04:16:28;;;;;;;8.15;5.13;;;4.90;99.90;;;;;;4943588;28;20075;-78
2023/11/18 04:19:14;;;;;;;9.10;5.30;;;4.80;99.90;;;;;;4937946;28;20031;-78
2023/11/18 04:22:00;;;;;;;10.93;5.63;;;4.90;99.90;;;;;;4916904;29;20044;-77
2023/11/18 04:24:47;;;;;;;9.88;6.43;;;4.80;99.90;;;;;;4933093;28;20046;-78
2023/11/18 04:27:33;;;;;;;10.87;6.03;;;4.90;99.90;;;;;;4929089;28;20046;-78
2023/11/18 04:30:20;;;;;;;10.50;5.72;;;4.90;99.90;;;;;;4932373;29;20118;-78
2023/11/18 04:33:08;;;;;;;8.32;5.07;;;4.90;99.90;;;;;;4925557;29;20051;-78
2023/11/18 04:35:58;;;;;;;9.68;5.25;;;4.80;99.90;;;;;;4943057;29;20435;-78
2023/11/18 04:38:44;;;;;;;8.50;5.28;;;4.80;99.90;;;;;;4937587;29;20380;-78
2023/11/18 04:41:31;;;;;;;11.38;5.72;;;4.70;99.90;;;;;;4932946;29;20039;-78
2023/11/18 04:44:17;;;;;;;7.97;5.07;;;4.70;99.90;;;;;;4920390;29;20117;-78
2023/11/18 04:47:04;;;;;;;11.48;5.50;;;4.70;99.90;;;;;;4946477;29;20368;-78
2023/11/18 04:49:50;;;;;;;10.25;4.90;;;4.70;99.90;;;;;;4933087;29;20043;-78
2023/11/18 04:52:36;;;;;;;9.18;5.68;;;4.60;99.90;;;;;;4924783;29;20107;-78
2023/11/18 04:55:22;;;;;;;8.38;5.00;;;4.60;99.90;;;;;;4941108;29;20039;-78
2023/11/18 04:58:09;;;;;;;7.68;4.60;;;4.60;99.90;;;;;;4940048;29;20472;-77
2023/11/18 05:00:55;;;;;;;8.77;4.78;;;4.50;99.90;;;;;;4933596;29;20801;-77
2023/11/18 05:03:41;;;;;;;7.88;4.07;;;4.50;99.90;;;;;;4918075;29;20039;-78
2023/11/18 05:06:27;;;;;;;8.02;5.05;;;4.50;99.90;;;;;;4957850;28;20460;-77
2023/11/18 05:09:14;;;;;;;7.18;4.57;;;4.40;99.90;;;;;;4945559;29;20118;-78
2023/11/18 05:12:00;;;;;;;10.55;4.65;;;4.40;99.90;;;;;;4920599;28;20122;-78
2023/11/18 05:14:49;;;;;;;7.57;4.43;;;4.40;99.90;;;;;;4950046;28;20074;-77
2023/11/18 05:17:38;;;;;;;8.02;4.63;;;4.40;99.90;;;;;;4967707;28;20542;-77
2023/11/18 05:20:24;;;;;;;8.25;4.82;;;4.40;99.90;;;;;;4949744;28;20035;-78
2023/11/18 05:23:11;;;;;;;7.10;4.55;;;4.30;99.90;;;;;;4948826;28;20066;-77
2023/11/18 05:26:01;;;;;;;7.65;4.30;;;4.30;99.90;;;;;;4937696;29;20035;-77
2023/11/18 05:28:48;;;;;;;10.18;4.78;;;4.20;99.90;;;;;;4943601;29;20078;-77
2023/11/18 05:31:35;;;;;;;7.05;4.40;;;4.30;99.90;;;;;;4943470;29;20476;-78
2023/11/18 05:34:21;;;;;;;10.27;5.18;;;4.20;99.90;;;;;;4930898;29;20043;-78
2023/11/18 05:37:07;;;;;;;11.65;5.60;;;4.20;99.90;;;;;;4943690;29;20501;-76
2023/11/18 05:39:59;;;;;;;10.35;5.40;;;4.20;99.90;;;;;;4944319;29;20039;-77
2023/11/18 05:42:47;;;;;;;7.43;4.90;;;4.20;99.90;;;;;;4919282;29;20050;-77
2023/11/18 05:45:55;;;;;;;10.75;5.60;;;4.10;99.90;;;;;;4926437;29;20063;-77
2023/11/18 05:48:42;;;;;;;10.65;5.55;;;4.10;99.90;;;;;;4930114;29;20043;-77
2023/11/18 05:51:29;;;;;;;16.13;6.43;;;4.10;99.90;;;;;;4929375;29;20039;-77
2023/11/18 05:54:17;;;;;;;8.80;4.72;;;4.00;99.90;;;;;;4929395;29;20556;-78
2023/11/18 05:57:04;;;;;;;10.57;5.22;;;4.00;99.90;;;;;;4943777;29;20110;-78
2023/11/18 05:59:50;;;;;;;9.50;5.25;;;4.00;99.90;;;;;;4911185;29;20122;-77
2023/11/18 06:02:37;;;;;;;9.95;4.90;;;4.00;99.90;;;;;;4920312;29;20051;-78
2023/11/18 06:05:26;;;;;;;9.88;5.53;;;4.00;99.90;;;;;;4917332;29;20134;-77
2023/11/18 06:08:13;;;;;;;8.82;5.10;;;4.00;99.90;;;;;;4927634;29;20051;-77
2023/11/18 06:11:05;;;;;;;8.10;4.65;;;4.00;99.90;;;;;;4938131;28;20049;-77
2023/11/18 06:13:51;;;;;;;8.48;4.97;;;4.00;99.90;;;;;;4916997;29;20472;-76
2023/11/18 06:16:39;;;;;;;8.93;6.10;;;4.00;99.90;;;;;;4916544;29;20079;-78
2023/11/18 06:19:25;;;;;;;9.77;5.75;;;4.00;99.90;;;;;;4930314;29;20077;-77
2023/11/18 06:22:14;;;;;;;9.15;5.45;;;4.00;99.90;;;;;;4921077;29;20642;-77
2023/11/18 06:25:02;;;;;;;9.13;5.22;;;4.00;99.90;;;;;;4927347;29;20039;-77
2023/11/18 06:27:50;;;;;;;8.32;5.53;;;4.00;99.90;;;;;;4925867;28;20042;-77
2023/11/18 06:30:38;;;;;;;9.65;5.90;;;4.00;99.90;;;;;;4914732;29;20498;-77
2023/11/18 06:33:27;;;;;;;10.20;6.20;;;3.90;99.90;;;;;;4924979;29;20075;-77
2023/11/18 06:36:14;;;;;;;11.32;5.95;;;3.90;99.90;;;;;;4942652;29;20075;-77
2023/11/18 06:39:00;;;;;;;9.15;5.82;;;3.90;99.90;;;;;;4942761;29;20487;-77
2023/11/18 06:41:50;;;;;;;11.65;5.97;;;3.90;99.90;;;;;;4931806;29;20035;-77
2023/11/18 06:44:38;;;;;;;10.57;5.68;;;3.90;99.90;;;;;;4918929;29;20109;-77
2023/11/18 06:47:24;;;;;;;9.15;5.75;;;3.90;99.90;;;;;;4940380;29;20110;-77
2023/11/18 06:50:14;;;;;;;9.65;5.55;;;3.90;99.90;;;;;;4924974;28;20106;-77
2023/11/18 06:53:00;;;;;;;12.23;6.90;;;3.80;99.90;;;;;;4913450;28;20375;-77
2023/11/18 06:55:46;;;;;;;10.00;5.88;;;3.80;99.90;;;;;;4931464;29;20043;-77
2023/11/18 06:58:32;;;;;;;10.45;5.82;;;3.80;99.90;;;;;;4907218;29;20040;-77
2023/11/18 07:01:19;;;;;;;8.60;5.45;;;3.80;99.90;;;;;;4949460;28;20167;-77
2023/11/18 07:04:09;;;;;;;8.45;5.00;;;3.80;99.90;;;;;;4916359;28;20393;-77
2023/11/18 07:06:57;;;;;;;10.25;6.00;;;3.70;99.90;;;;;;4934873;28;20053;-77
2023/11/18 07:09:44;;;;;;;8.07;5.18;;;3.70;99.90;;;;;;4921150;29;20545;-77
2023/11/18 07:12:37;;;;;;;9.75;5.55;;;3.70;99.90;;;;;;4930901;29;20039;-77
2023/11/18 07:15:24;;;;;;;12.88;5.82;;;3.70;99.90;;;;;;4943123;29;20209;-77
2023/11/18 07:18:11;;;;;;;12.27;6.70;;;3.60;99.90;;;;;;4942458;29;20350;-77
2023/11/18 07:21:04;;;;;;;14.07;7.05;;;3.60;99.90;;;;;;4930751;29;20472;-77
2023/11/18 07:23:50;;;;;;;12.05;6.63;;;3.60;99.90;;;;;;4918328;28;20047;-77
2023/11/18 07:26:37;;;;;;;14.77;7.72;;;3.60;99.90;;;;;;4936164;28;20051;-77
2023/11/18 07:29:23;;;;;;;14.02;7.72;;;3.60;99.90;;;;;;4937965;29;20077;-77
2023/11/18 07:32:10;;;;;;;14.02;7.35;;;3.60;99.90;;;;;;4929564;29;20035;-77
2023/11/18 07:34:57;;;;;;;12.68;8.30;;;3.60;99.90;;;;;;4925967;29;20047;-77
2023/11/18 07:37:44;;;;;;;12.30;7.25;;;3.50;99.90;;;;;;4933921;28;20093;-77
2023/11/18 07:40:33;;;;;;;12.15;6.85;;;3.60;99.90;;;;;;4940448;28;20074;-77
2023/11/18 07:43:21;;;;;;;12.27;7.10;;;3.60;99.90;;;;;;4934142;29;20075;-76
2023/11/18 07:46:08;;;;;;;13.88;6.38;;;3.70;99.90;;;;;;4937291;28;20046;-77
2023/11/18 07:48:56;;;;;;;16.08;7.53;;;3.70;99.90;;;;;;4940760;28;20058;-77
2023/11/18 07:51:43;;;;;;;11.25;7.65;;;3.70;99.90;;;;;;4945415;29;20483;-76
2023/11/18 07:54:30;;;;;;;14.52;8.75;;;3.70;99.90;;;;;;4932908;29;20047;-76
2023/11/18 07:57:16;;;;;;;16.15;9.25;;;3.70;99.90;;;;;;4958645;29;20043;-77
2023/11/18 08:00:09;;;;;;;16.90;10.68;;;3.80;99.90;;;;;;4934474;29;20031;-77
2023/11/18 08:02:55;;;;;;;18.27;11.30;;;3.70;99.90;;;;;;4916920;29;20126;-77
2023/11/18 08:05:44;;;;;;;20.05;11.75;;;3.70;99.90;;;;;;4927988;29;20044;-77
2023/11/18 08:08:31;;;;;;;24.95;12.57;;;3.80;99.90;;;;;;4917456;29;20039;-77
2023/11/18 08:11:19;;;;;;;22.55;12.93;;;3.80;99.90;;;;;;4914311;29;20047;-77
2023/11/18 08:14:06;;;;;;;;;;;3.90;99.90;;;;;;4921381;29;20496;-77
2023/11/18 08:16:53;;;;;;;24.20;13.60;;;3.90;99.90;;;;;;4941155;28;19997;-78
2023/11/18 08:19:40;;;;;;;23.80;14.33;;;3.90;99.90;;;;;;4926344;29;20114;-78
2023/11/18 08:22:26;;;;;;;26.85;15.85;;;4.00;99.90;;;;;;4943453;29;20055;-78
2023/11/18 08:25:12;;;;;;;28.65;16.65;;;4.10;99.90;;;;;;4914045;29;20470;-78
2023/11/18 08:28:07;;;;;;;28.08;16.50;;;4.10;99.90;;;;;;4914426;29;20043;-77
2023/11/18 08:30:54;;;;;;;33.83;18.55;;;4.10;99.90;;;;;;4906425;29;20764;-77
2023/11/18 08:33:43;;;;;;;39.72;20.30;;;4.20;99.90;;;;;;4944153;29;20071;-78
2023/11/18 08:36:32;;;;;;;38.38;18.98;;;4.20;99.90;;;;;;4934195;29;20036;-78
2023/11/18 08:39:20;;;;;;;38.63;20.48;;;4.30;99.90;;;;;;4947085;28;20088;-78
2023/11/18 08:42:07;;;;;;;35.63;19.27;;;4.30;99.90;;;;;;4966142;28;20034;-78
2023/11/18 08:44:55;;;;;;;41.95;20.83;;;4.40;99.90;;;;;;4908927;29;20039;-78
2023/11/18 08:47:45;;;;;;;35.83;21.73;;;4.50;99.90;;;;;;4936308;28;20043;-78
2023/11/18 08:50:31;;;;;;;42.85;22.88;;;4.50;99.90;;;;;;4930616;28;20472;-78
2023/11/18 08:53:17;;;;;;;38.88;22.13;;;4.60;99.90;;;;;;4944349;28;20046;-78
2023/11/18 08:56:05;;;;;;;40.13;21.85;;;4.70;99.90;;;;;;4908800;29;20052;-78
2023/11/18 08:58:51;;;;;;;42.50;23.35;;;4.80;99.90;;;;;;4917426;29;20042;-78
2023/11/18 09:01:39;;;;;;;39.90;21.75;;;4.80;99.90;;;;;;4912403;29;20040;-75
2023/11/18 09:04:25;;;;;;;46.67;24.20;;;4.90;99.90;;;;;;4898851;29;20075;-76
2023/11/18 09:07:13;;;;;;;43.65;24.08;;;5.00;99.90;;;;;;4917368;29;20786;-76
2023/11/18 09:10:01;;;;;;;45.20;25.25;;;5.10;99.90;;;;;;4905706;29;20036;-77
2023/11/18 09:12:47;;;;;;;44.72;25.92;;;5.10;99.90;;;;;;4914354;28;20052;-79
2023/11/18 09:15:36;;;;;;;50.58;25.10;;;5.20;99.90;;;;;;4914281;29;20054;-77
2023/11/18 09:18:24;;;;;;;51.60;27.30;;;5.30;99.90;;;;;;4937095;28;20093;-77
2023/11/18 09:21:19;;;;;;;;;;;5.30;99.90;;;;;;4926065;29;20113;-77
2023/11/18 09:24:07;;;;;;;51.20;27.45;;;5.40;99.90;;;;;;4933461;29;20394;-78
2023/11/18 09:26:56;;;;;;;53.20;28.42;;;5.50;99.90;;;;;;4936939;29;20056;-78
2023/11/18 09:29:44;;;;;;;52.58;28.23;;;5.50;99.90;;;;;;4918405;28;20472;-76
2023/11/18 09:32:34;;;;;;;48.33;28.33;;;5.60;99.90;;;;;;4920785;28;20051;-78
2023/11/18 09:35:20;;;;;;;46.60;27.58;;;5.70;99.90;;;;;;4940498;28;20122;-78
2023/11/18 09:38:06;;;;;;;49.92;28.13;;;5.80;99.90;;;;;;4932533;28;20065;-78
2023/11/18 09:40:53;;;;;;;50.10;27.65;;;5.90;99.90;;;;;;4932935;28;20111;-77
2023/11/18 09:43:45;;;;;;;50.95;29.15;;;6.00;99.90;;;;;;4944279;28;20049;-76
2023/11/18 09:46:32;;;;;;;47.38;26.95;;;6.10;99.90;;;;;;4951318;29;20366;-76
2023/11/18 09:49:33;;;;;;;46.38;27.02;;;6.20;99.90;;;;;;4929108;29;20080;-76
2023/11/18 09:52:21;;;;;;;47.15;26.20;;;6.20;99.90;;;;;;4941280;28;20046;-77
2023/11/18 09:55:14;;;;;;;44.45;27.02;;;6.20;99.90;;;;;;4939542;28;20035;-77
2023/11/18 09:58:08;;;;;;;50.22;27.50;;;6.30;99.90;;;;;;4940949;28;20684;-77
2023/11/18 10:00:57;;;;;;;51.63;28.70;;;6.40;99.90;;;;;;4942841;28;20074;-77
2023/11/18 10:03:45;;;;;;;46.92;26.13;;;6.50;99.90;;;;;;4926733;29;20035;-77
2023/11/18 10:06:33;;;;;;;45.90;25.88;;;6.70;99.90;;;;;;4926020;29;20114;-78
2023/11/18 10:09:28;;;;;;;;;;;6.90;99.90;;;;;;4916658;29;20039;-77
2023/11/18 10:12:16;;;;;;;43.17;24.17;;;7.20;99.90;;;;;;4954000;28;19910;-77
2023/11/18 10:15:03;;;;;;;47.83;26.20;;;7.40;99.90;;;;;;4946128;29;20472;-77
2023/11/18 10:18:09;;;;;;;43.97;25.67;;;7.60;99.90;;;;;;4927089;28;20729;-77
2023/11/18 10:20:56;;;;;;;52.25;28.52;;;7.70;99.90;;;;;;4942985;29;20027;-77
2023/11/18 10:23:47;;;;;;;46.00;26.87;;;8.00;99.90;;;;;;4946133;28;20054;-78
2023/11/18 10:26:34;;;;;;;43.25;26.10;;;8.10;99.90;;;;;;4933358;29;20090;-78
2023/11/18 10:29:20;;;;;;;35.92;22.98;;;8.30;99.90;;;;;;4940114;28;20039;-77
2023/11/18 10:32:15;;;;;;;37.05;21.25;;;8.50;99.90;;;;;;4936375;29;20074;-77
2023/11/18 10:35:04;;;;;;;35.63;21.38;;;8.70;99.90;;;;;;4943652;29;20045;-77
2023/11/18 10:37:50;;;;;;;33.83;20.85;;;9.00;99.90;;;;;;4941878;28;20701;-77
2023/11/18 10:40:37;;;;;;;32.25;20.13;;;9.20;99.90;;;;;;4930913;29;20413;-77
2023/11/18 10:43:24;;;;;;;32.30;19.58;;;9.40;99.90;;;;;;4942931;29;20050;-77
2023/11/18 10:46:16;;;;;;;28.50;18.38;;;9.50;99.90;;;;;;4917806;29;20365;-77
2023/11/18 10:49:02;;;;;;;29.73;18.65;;;9.60;99.90;;;;;;4923394;29;20436;-77
2023/11/18 10:51:50;;;;;;;29.00;18.65;;;9.60;99.90;;;;;;4925473;29;20054;-78
2023/11/18 10:54:37;;;;;;;26.23;16.83;;;9.90;99.90;;;;;;4911408;29;20043;-77
2023/11/18 10:57:23;;;;;;;26.63;17.48;;;10.10;99.90;;;;;;4944874;28;20070;-79
2023/11/18 11:00:13;;;;;;;26.67;16.98;;;10.90;99.90;;;;;;4930042;28;20053;-78
2023/11/18 11:03:00;;;;;;;22.88;14.65;;;11.30;99.90;;;;;;4936918;29;20039;-78
2023/11/18 11:05:49;;;;;;;18.35;12.00;;;11.40;99.90;;;;;;4930512;29;20484;-77
2023/11/18 11:08:35;;;;;;;22.02;14.70;;;11.60;99.90;;;;;;4928550;28;20538;-77
2023/11/18 11:11:22;;;;;;;21.45;13.35;;;12.30;99.90;;;;;;4914782;29;20357;-77
2023/11/18 11:14:08;;;;;;;20.35;13.00;;;12.00;99.90;;;;;;4925272;29;20043;-77
2023/11/18 11:16:59;;;;;;;23.30;15.43;;;12.00;99.90;;;;;;4924071;29;20047;-77
2023/11/18 11:19:56;;;;;;;16.13;11.95;;;12.10;99.90;;;;;;4935743;29;20101;-79
2023/11/18 11:23:14;;;;;;;18.88;12.18;;;12.00;99.90;;;;;;4942715;29;20126;-78
2023/11/18 11:26:08;;;;;;;17.13;11.90;;;11.80;99.90;;;;;;4914343;29;20040;-78
2023/11/18 11:29:15;;;;;;;17.58;13.55;;;11.80;99.90;;;;;;4944519;28;20038;-78
2023/11/18 11:32:12;;;;;;;22.83;14.05;;;11.60;99.90;;;;;;4941491;28;20502;-79
2023/11/18 11:35:07;;;;;;;23.35;14.05;;;11.60;99.90;;;;;;4959055;29;20071;-79
2023/11/18 11:37:57;;;;;;;22.35;16.20;;;11.30;99.90;;;;;;4940592;28;20054;-78
2023/11/18 11:40:43;;;;;;;22.33;15.68;;;11.10;99.90;;;;;;4931543;28;20049;-78
2023/11/18 11:43:29;;;;;;;21.85;14.88;;;10.90;99.90;;;;;;4904747;28;20122;-78
2023/11/18 11:46:23;;;;;;;27.02;17.67;;;10.80;99.90;;;;;;4925155;28;20034;-79
2023/11/18 11:49:21;;;;;;;24.85;15.88;;;10.30;99.90;;;;;;4908921;29;20039;-78
2023/11/18 11:52:15;;;;;;;24.17;15.30;;;10.10;99.90;;;;;;4933334;28;20130;-78
2023/11/18 11:55:23;;;;;;;24.58;17.10;;;10.20;99.90;;;;;;4930432;28;20510;-78
2023/11/18 11:58:31;;;;;;;25.23;15.35;;;9.80;99.90;;;;;;4963482;28;20049;-78
2023/11/18 12:01:37;;;;;;;26.85;17.63;;;10.10;99.90;;;;;;4926325;28;20085;-79
2023/11/18 12:04:28;;;;;;;24.80;15.02;;;10.10;99.90;;;;;;4940186;28;20039;-78
2023/11/18 12:07:15;;;;;;;29.83;17.48;;;10.00;99.90;;;;;;4940099;28;20035;-78
2023/11/18 12:10:06;;;;;;;27.27;17.25;;;9.80;99.90;;;;;;4934040;28;20068;-79
2023/11/18 12:13:19;;;;;;;23.98;15.45;;;9.40;99.90;;;;;;4932815;29;20047;-78
2023/11/18 12:16:09;;;;;;;27.75;17.42;;;9.30;99.90;;;;;;4917760;29;20039;-78
2023/11/18 12:19:58;;;;;;;28.10;19.15;;;9.10;99.90;;;;;;4926414;28;20031;-78
2023/11/18 12:23:04;;;;;;;30.48;17.73;;;8.90;99.90;;;;;;4940334;29;20051;-78
2023/11/18 12:25:54;;;;;;;26.13;16.95;;;8.70;99.90;;;;;;4946388;29;20544;-78
2023/11/18 12:28:45;;;;;;;26.88;17.45;;;8.60;99.90;;;;;;4931460;28;20050;-78
2023/11/18 12:31:42;;;;;;;25.65;15.90;;;8.30;99.90;;;;;;4919897;29;20051;-78
2023/11/18 12:34:52;;;;;;;27.50;16.80;;;8.20;99.90;;;;;;4917761;29;20039;-78
2023/11/18 12:38:12;;;;;;;24.33;15.13;;;8.30;99.90;;;;;;4933036;28;20039;-78
2023/11/18 12:41:11;;;;;;;22.15;13.88;;;8.20;99.90;;;;;;4940130;29;20042;-78
2023/11/18 12:44:24;;;;;;;22.25;15.23;;;8.20;99.90;;;;;;4931642;29;20051;-76
2023/11/18 12:47:20;;;;;;;24.75;15.77;;;8.10;99.90;;;;;;4945066;29;20050;-77
2023/11/18 12:50:17;;;;;;;22.67;14.50;;;8.00;99.90;;;;;;4935337;29;20074;-77
2023/11/18 12:53:06;;;;;;;23.35;13.90;;;8.00;99.90;;;;;;4940462;28;20124;-77
2023/11/18 12:55:52;;;;;;;21.85;12.82;;;8.00;99.90;;;;;;4914170;29;20047;-77
2023/11/18 12:58:39;;;;;;;21.48;13.10;;;7.90;99.90;;;;;;4924956;28;20031;-77
2023/11/18 13:01:27;;;;;;;19.02;12.93;;;7.80;99.90;;;;;;4944726;29;20035;-77
2023/11/18 13:04:13;;;;;;;18.95;12.05;;;7.80;99.90;;;;;;4914763;29;20047;-77
2023/11/18 13:07:18;;;;;;;19.08;11.82;;;7.80;99.90;;;;;;4921820;29;20039;-77
2023/11/18 13:10:05;;;;;;;19.13;11.73;;;7.80;99.90;;;;;;4932248;29;20035;-77
2023/11/18 13:12:51;;;;;;;15.93;10.68;;;7.80;99.90;;;;;;4944761;29;20047;-77
2023/11/18 13:15:39;;;;;;;18.80;10.77;;;7.80;99.90;;;;;;4931407;29;20032;-77
2023/11/18 13:18:26;;;;;;;16.58;10.35;;;7.70;99.90;;;;;;4935891;29;20164;-77
2023/11/18 13:21:15;;;;;;;16.55;8.88;;;7.80;99.90;;;;;;4925483;29;20035;-78
2023/11/18 13:24:05;;;;;;;12.23;8.02;;;7.70;99.90;;;;;;4924253;28;20085;-78
2023/11/18 13:26:51;;;;;;;12.75;8.40;;;7.70;99.90;;;;;;4936777;28;20039;-78
2023/11/18 13:29:42;;;;;;;10.68;8.00;;;7.60;99.90;;;;;;4898835;29;20082;-78
2023/11/18 13:32:28;;;;;;;11.02;7.00;;;7.70;99.90;;;;;;4908819;29;20067;-78
2023/11/18 13:35:18;;;;;;;10.60;7.10;;;7.60;99.90;;;;;;4926629;28;20039;-78
2023/11/18 13:38:05;;;;;;;12.07;7.78;;;7.60;99.90;;;;;;4913625;29;20089;-78
2023/11/18 13:40:51;;;;;;;11.38;6.82;;;7.60;99.90;;;;;;4936373;28;20122;-78
2023/11/18 13:43:43;;;;;;;11.10;7.53;;;7.60;99.90;;;;;;4931178;28;20142;-78
2023/11/18 13:46:29;;;;;;;12.63;6.70;;;7.50;99.90;;;;;;4898974;29;20047;-75
2023/11/18 13:49:15;;;;;;;11.73;7.18;;;7.60;99.90;;;;;;4917001;29;20115;-78
2023/11/18 13:52:02;;;;;;;11.00;6.55;;;7.70;99.90;;;;;;4924437;29;20106;-78
2023/11/18 13:54:52;;;;;;;10.82;6.20;;;7.60;99.90;;;;;;4951958;28;20374;-78
2023/11/18 13:57:39;;;;;;;18.08;6.95;;;7.60;99.90;;;;;;4910419;29;20079;-78
2023/11/18 14:00:32;;;;;;;10.05;7.28;;;7.70;99.90;;;;;;4924615;29;20043;-78
2023/11/18 14:03:18;;;;;;;10.05;6.60;;;7.60;99.90;;;;;;4933829;28;20048;-78
2023/11/18 14:06:10;;;;;;;13.82;6.22;;;7.60;99.90;;;;;;4937961;29;20130;-78
2023/11/18 14:08:56;;;;;;;10.30;6.25;;;7.50;99.90;;;;;;4910557;28;20047;-74
2023/11/18 14:11:44;;;;;;;11.88;6.13;;;7.50;99.90;;;;;;4944664;29;20094;-76
2023/11/18 14:14:31;;;;;;;11.13;6.43;;;7.60;99.90;;;;;;4929178;28;20134;-76
2023/11/18 14:17:17;;;;;;;10.50;5.95;;;7.40;99.90;;;;;;4934096;29;20038;-76
2023/11/18 14:20:04;;;;;;;9.38;5.60;;;7.40;99.90;;;;;;4935863;29;20039;-76
2023/11/18 14:22:51;;;;;;;8.75;5.07;;;7.40;99.90;;;;;;4926009;29;20409;-77
2023/11/18 14:25:39;;;;;;;10.10;5.93;;;7.40;99.90;;;;;;4911639;29;20048;-76
2023/11/18 14:28:27;;;;;;;12.07;5.80;;;7.40;99.90;;;;;;4914961;29;20833;-76
2023/11/18 14:31:13;;;;;;;11.55;6.05;;;7.40;99.90;;;;;;4932131;29;20050;-76
2023/11/18 14:34:00;;;;;;;11.82;5.60;;;7.30;99.90;;;;;;4936877;29;20564;-76
2023/11/18 14:36:46;;;;;;;9.47;4.80;;;7.30;99.90;;;;;;4914954;29;20043;-77
2023/11/18 14:39:32;;;;;;;12.15;5.63;;;7.30;99.90;;;;;;4929566;28;20126;-76
2023/11/18 14:42:23;;;;;;;9.90;5.15;;;7.30;99.90;;;;;;4930527;28;20045;-75